Terminal Aerodrome Forecast
Issued by NWS

Home | Current Version | Previous Version | Graphics & Text | Print | Product List | Glossary On
Versions: 1 2 3 4 5 6 7 8 9 10 11 12 13 14 15 16 17
000
FTUS43 KBIS 100500
TAFJMS
TAF
KJMS 100533Z 1006/1106 13006KT 6SM FU SKC
     FM101500 17012KT P6SM SCT060
     FM110200 16006KT P6SM SCT120=

USA.gov is the U.S. government's official web portal to all federal, state and local government web resources and services.